Accueil
METAR-TAF:

METAR-TAF

Aéroports :

Lille, France

Aéroport de Lille-Lesquin

latitude: 50-34N, longitude: 003-06E, altitude: 48 m

Observation

Le bulletin a été fait il y a 12 minutes, à 13:30 UTC
Vent 17 kt de ouest
Température 11°C
Humidité 71%
Pression 1014 hPa
Visibilité 10 km ou plus
pluie faible

METAR: LFQQ 221330Z AUTO 27017KT 9999 -RA FEW037/// BKN050/// BKN092/// ///TCU 11/06 Q1014 BECMG BKN030

Heure: 15:42 (13:42 UTC)

Prévision

Le bulletin a été fait il y a 2 heures et 42 minutes, à 11:00 UTC
Prévision valable du 22 à 12 UTC au 23 à 18 UTC
Vent 13 kt de ouest
Visibilité 10 km ou plus
Nuages fragmentés à une hauteur de 3000 ft
Temporairement
du 23 à 09 UTC au 23 à 11 UTC
Nuages fragmentés à une hauteur de 1300 ft

TAF: LFQQ 221100Z 2212/2318 27013KT 9999 BKN030 TEMPO 2309/2311 BKN013

Observations et prévisions météorologiques de plus de 4000 aéroports (messages METAR et TAF).

Les stations disponibles sont représentées par des disques jaunes et rouges sur la carte.

Passer la souris dessus pour voir le nom de la station.

Cliquer dessus pour voir les observations et prévisions météorologiques.

Pour changer de carte: cliquez sur les boutons verts avec une croix noire pour zoomer, sur le bouton vert avec un tiret pour effectuer un zoom arrière, ou sur les flèches vertes pour les cartes adjacentes.


METAR-TAF: